sensor_id;sensor_type;location;lat;lon;timestamp;P1;durP1;ratioP1;P2;durP2;ratioP2
68944;SDS011;55984;48.790;8.990;2023-07-13T00:02:15;3.93;;;2.70;;
68944;SDS011;55984;48.790;8.990;2023-07-13T00:07:28;4.00;;;2.60;;
68944;SDS011;55984;48.790;8.990;2023-07-13T00:09:56;4.20;;;2.80;;
68944;SDS011;55984;48.790;8.990;2023-07-13T00:12:29;6.90;;;2.73;;
68944;SDS011;55984;48.790;8.990;2023-07-13T00:14:59;5.07;;;2.90;;
68944;SDS011;55984;48.790;8.990;2023-07-13T00:17:27;5.67;;;2.97;;
68944;SDS011;55984;48.790;8.990;2023-07-13T00:19:54;7.70;;;2.87;;
68944;SDS011;55984;48.790;8.990;2023-07-13T00:22:21;5.60;;;2.70;;
68944;SDS011;55984;48.790;8.990;2023-07-13T00:24:50;5.63;;;2.70;;
68944;SDS011;55984;48.790;8.990;2023-07-13T00:27:18;4.83;;;2.40;;
68944;SDS011;55984;48.790;8.990;2023-07-13T00:29:44;4.00;;;2.83;;
68944;SDS011;55984;48.790;8.990;2023-07-13T00:32:14;3.17;;;2.23;;
68944;SDS011;55984;48.790;8.990;2023-07-13T00:34:40;4.83;;;2.93;;
68944;SDS011;55984;48.790;8.990;2023-07-13T00:37:07;7.50;;;3.20;;
68944;SDS011;55984;48.790;8.990;2023-07-13T00:39:34;6.90;;;2.60;;
68944;SDS011;55984;48.790;8.990;2023-07-13T00:42:03;3.30;;;2.53;;
68944;SDS011;55984;48.790;8.990;2023-07-13T00:44:32;6.70;;;2.90;;
68944;SDS011;55984;48.790;8.990;2023-07-13T00:46:59;5.50;;;2.50;;
68944;SDS011;55984;48.790;8.990;2023-07-13T00:49:26;5.43;;;2.80;;
68944;SDS011;55984;48.790;8.990;2023-07-13T00:51:55;5.60;;;3.00;;
68944;SDS011;55984;48.790;8.990;2023-07-13T00:54:28;15.10;;;2.80;;
68944;SDS011;55984;48.790;8.990;2023-07-13T00:56:58;5.00;;;2.83;;
68944;SDS011;55984;48.790;8.990;2023-07-13T00:59:28;6.40;;;2.70;;
68944;SDS011;55984;48.790;8.990;2023-07-13T01:01:54;5.73;;;2.70;;
68944;SDS011;55984;48.790;8.990;2023-07-13T01:04:23;5.33;;;2.77;;
68944;SDS011;55984;48.790;8.990;2023-07-13T01:06:50;4.77;;;2.40;;
68944;SDS011;55984;48.790;8.990;2023-07-13T01:09:17;5.50;;;3.27;;
68944;SDS011;55984;48.790;8.990;2023-07-13T01:11:43;8.60;;;2.73;;
68944;SDS011;55984;48.790;8.990;2023-07-13T01:14:10;5.40;;;2.90;;
68944;SDS011;55984;48.790;8.990;2023-07-13T01:16:36;3.57;;;2.57;;
68944;SDS011;55984;48.790;8.990;2023-07-13T01:22:08;5.30;;;2.63;;
68944;SDS011;55984;48.790;8.990;2023-07-13T01:24:41;7.00;;;2.90;;
68944;SDS011;55984;48.790;8.990;2023-07-13T01:27:09;7.53;;;3.17;;
68944;SDS011;55984;48.790;8.990;2023-07-13T01:29:38;7.27;;;3.20;;
68944;SDS011;55984;48.790;8.990;2023-07-13T01:32:07;6.30;;;3.17;;
68944;SDS011;55984;48.790;8.990;2023-07-13T01:34:41;3.90;;;2.53;;
68944;SDS011;55984;48.790;8.990;2023-07-13T01:37:09;8.20;;;3.13;;
68944;SDS011;55984;48.790;8.990;2023-07-13T01:39:36;6.63;;;3.30;;
68944;SDS011;55984;48.790;8.990;2023-07-13T01:42:02;11.10;;;2.90;;
68944;SDS011;55984;48.790;8.990;2023-07-13T01:44:29;4.67;;;3.20;;
68944;SDS011;55984;48.790;8.990;2023-07-13T01:46:55;5.83;;;2.90;;
68944;SDS011;55984;48.790;8.990;2023-07-13T01:49:25;6.10;;;3.23;;
68944;SDS011;55984;48.790;8.990;2023-07-13T01:51:54;4.63;;;2.70;;
68944;SDS011;55984;48.790;8.990;2023-07-13T01:54:20;13.17;;;3.00;;
68944;SDS011;55984;48.790;8.990;2023-07-13T01:56:46;6.63;;;3.00;;
68944;SDS011;55984;48.790;8.990;2023-07-13T01:59:12;13.20;;;3.40;;
68944;SDS011;55984;48.790;8.990;2023-07-13T02:01:38;5.23;;;3.10;;
68944;SDS011;55984;48.790;8.990;2023-07-13T02:04:05;6.03;;;2.87;;
68944;SDS011;55984;48.790;8.990;2023-07-13T02:06:31;4.17;;;3.20;;
68944;SDS011;55984;48.790;8.990;2023-07-13T02:08:57;10.07;;;3.30;;
68944;SDS011;55984;48.790;8.990;2023-07-13T02:11:25;5.50;;;2.80;;
68944;SDS011;55984;48.790;8.990;2023-07-13T02:13:57;7.50;;;3.33;;
68944;SDS011;55984;48.790;8.990;2023-07-13T02:16:24;4.60;;;2.77;;
68944;SDS011;55984;48.790;8.990;2023-07-13T02:18:50;8.53;;;3.00;;
68944;SDS011;55984;48.790;8.990;2023-07-13T02:21:17;6.43;;;3.00;;
68944;SDS011;55984;48.790;8.990;2023-07-13T02:23:43;4.83;;;2.80;;
68944;SDS011;55984;48.790;8.990;2023-07-13T02:26:09;5.57;;;2.87;;
68944;SDS011;55984;48.790;8.990;2023-07-13T02:28:35;7.40;;;2.97;;
68944;SDS011;55984;48.790;8.990;2023-07-13T02:31:06;7.60;;;3.37;;
68944;SDS011;55984;48.790;8.990;2023-07-13T02:33:35;6.53;;;3.00;;
68944;SDS011;55984;48.790;8.990;2023-07-13T02:36:02;10.10;;;2.90;;
68944;SDS011;55984;48.790;8.990;2023-07-13T02:38:30;4.27;;;3.10;;
68944;SDS011;55984;48.790;8.990;2023-07-13T02:40:58;6.97;;;3.10;;
68944;SDS011;55984;48.790;8.990;2023-07-13T02:43:25;5.73;;;3.07;;
68944;SDS011;55984;48.790;8.990;2023-07-13T02:45:51;4.50;;;2.80;;
68944;SDS011;55984;48.790;8.990;2023-07-13T02:48:17;3.87;;;2.90;;
68944;SDS011;55984;48.790;8.990;2023-07-13T02:50:44;6.83;;;3.10;;
68944;SDS011;55984;48.790;8.990;2023-07-13T02:53:10;5.13;;;3.03;;
68944;SDS011;55984;48.790;8.990;2023-07-13T02:55:39;5.00;;;3.13;;
68944;SDS011;55984;48.790;8.990;2023-07-13T02:58:06;5.60;;;3.10;;
68944;SDS011;55984;48.790;8.990;2023-07-13T03:00:32;8.20;;;3.50;;
68944;SDS011;55984;48.790;8.990;2023-07-13T03:02:59;5.70;;;3.47;;
68944;SDS011;55984;48.790;8.990;2023-07-13T03:05:25;8.13;;;3.40;;
68944;SDS011;55984;48.790;8.990;2023-07-13T03:07:53;5.20;;;3.10;;
68944;SDS011;55984;48.790;8.990;2023-07-13T03:10:19;7.73;;;3.30;;
68944;SDS011;55984;48.790;8.990;2023-07-13T03:12:45;7.07;;;3.50;;
68944;SDS011;55984;48.790;8.990;2023-07-13T03:15:11;5.90;;;3.63;;
68944;SDS011;55984;48.790;8.990;2023-07-13T03:17:37;7.90;;;3.20;;
68944;SDS011;55984;48.790;8.990;2023-07-13T03:20:03;6.00;;;3.50;;
68944;SDS011;55984;48.790;8.990;2023-07-13T03:22:29;5.40;;;3.10;;
68944;SDS011;55984;48.790;8.990;2023-07-13T03:24:55;14.93;;;3.90;;
68944;SDS011;55984;48.790;8.990;2023-07-13T03:27:21;7.73;;;3.50;;
68944;SDS011;55984;48.790;8.990;2023-07-13T03:29:47;9.60;;;3.70;;
68944;SDS011;55984;48.790;8.990;2023-07-13T03:32:13;5.33;;;3.47;;
68944;SDS011;55984;48.790;8.990;2023-07-13T03:37:10;8.20;;;3.70;;
68944;SDS011;55984;48.790;8.990;2023-07-13T03:39:49;8.30;;;3.60;;
68944;SDS011;55984;48.790;8.990;2023-07-13T03:42:15;5.80;;;3.83;;
68944;SDS011;55984;48.790;8.990;2023-07-13T03:44:55;5.63;;;3.90;;
68944;SDS011;55984;48.790;8.990;2023-07-13T03:47:21;7.10;;;3.10;;
68944;SDS011;55984;48.790;8.990;2023-07-13T03:52:30;8.17;;;3.80;;
68944;SDS011;55984;48.790;8.990;2023-07-13T03:54:57;8.10;;;4.20;;
68944;SDS011;55984;48.790;8.990;2023-07-13T03:57:23;8.33;;;3.87;;
68944;SDS011;55984;48.790;8.990;2023-07-13T03:59:49;9.50;;;4.20;;
68944;SDS011;55984;48.790;8.990;2023-07-13T04:02:15;6.97;;;4.00;;
68944;SDS011;55984;48.790;8.990;2023-07-13T04:04:41;9.87;;;3.90;;
68944;SDS011;55984;48.790;8.990;2023-07-13T04:07:07;9.70;;;4.50;;
68944;SDS011;55984;48.790;8.990;2023-07-13T04:09:33;7.40;;;3.97;;
68944;SDS011;55984;48.790;8.990;2023-07-13T04:12:00;11.10;;;3.80;;
68944;SDS011;55984;48.790;8.990;2023-07-13T04:14:26;13.60;;;4.07;;
68944;SDS011;55984;48.790;8.990;2023-07-13T04:16:52;9.83;;;4.30;;
68944;SDS011;55984;48.790;8.990;2023-07-13T04:19:19;7.57;;;4.07;;
68944;SDS011;55984;48.790;8.990;2023-07-13T04:21:46;7.43;;;4.17;;
68944;SDS011;55984;48.790;8.990;2023-07-13T04:24:12;7.60;;;4.20;;
68944;SDS011;55984;48.790;8.990;2023-07-13T04:26:46;9.80;;;4.50;;
68944;SDS011;55984;48.790;8.990;2023-07-13T04:29:12;7.20;;;3.77;;
68944;SDS011;55984;48.790;8.990;2023-07-13T04:31:38;7.37;;;3.87;;
68944;SDS011;55984;48.790;8.990;2023-07-13T04:34:04;6.80;;;3.83;;
68944;SDS011;55984;48.790;8.990;2023-07-13T04:36:32;8.70;;;4.10;;
68944;SDS011;55984;48.790;8.990;2023-07-13T04:38:58;5.90;;;4.13;;
68944;SDS011;55984;48.790;8.990;2023-07-13T04:41:24;6.27;;;4.10;;
68944;SDS011;55984;48.790;8.990;2023-07-13T04:43:50;7.20;;;4.47;;
68944;SDS011;55984;48.790;8.990;2023-07-13T04:46:17;7.27;;;4.07;;
68944;SDS011;55984;48.790;8.990;2023-07-13T04:48:44;8.97;;;4.63;;
68944;SDS011;55984;48.790;8.990;2023-07-13T04:51:10;10.73;;;4.33;;
68944;SDS011;55984;48.790;8.990;2023-07-13T04:53:36;7.93;;;4.30;;
68944;SDS011;55984;48.790;8.990;2023-07-13T04:56:02;7.37;;;4.60;;
68944;SDS011;55984;48.790;8.990;2023-07-13T04:58:29;7.20;;;4.40;;
68944;SDS011;55984;48.790;8.990;2023-07-13T05:01:02;7.80;;;4.10;;
68944;SDS011;55984;48.790;8.990;2023-07-13T05:03:29;7.37;;;4.27;;
68944;SDS011;55984;48.790;8.990;2023-07-13T05:05:57;6.97;;;4.13;;
68944;SDS011;55984;48.790;8.990;2023-07-13T05:08:24;6.13;;;3.83;;
68944;SDS011;55984;48.790;8.990;2023-07-13T05:10:50;5.63;;;3.47;;
68944;SDS011;55984;48.790;8.990;2023-07-13T05:13:17;6.97;;;4.00;;
68944;SDS011;55984;48.790;8.990;2023-07-13T05:15:57;8.20;;;4.00;;
68944;SDS011;55984;48.790;8.990;2023-07-13T05:18:27;6.60;;;3.40;;
68944;SDS011;55984;48.790;8.990;2023-07-13T05:20:57;6.00;;;3.70;;
68944;SDS011;55984;48.790;8.990;2023-07-13T05:23:32;8.13;;;3.80;;
68944;SDS011;55984;48.790;8.990;2023-07-13T05:26:00;5.80;;;3.60;;
68944;SDS011;55984;48.790;8.990;2023-07-13T05:28:32;8.73;;;3.80;;
68944;SDS011;55984;48.790;8.990;2023-07-13T05:30:58;7.83;;;3.57;;
68944;SDS011;55984;48.790;8.990;2023-07-13T05:33:36;8.07;;;3.90;;
68944;SDS011;55984;48.790;8.990;2023-07-13T05:36:02;4.83;;;3.30;;
68944;SDS011;55984;48.790;8.990;2023-07-13T05:38:42;6.63;;;3.70;;
68944;SDS011;55984;48.790;8.990;2023-07-13T05:41:08;11.40;;;3.90;;
68944;SDS011;55984;48.790;8.990;2023-07-13T05:43:34;8.13;;;4.30;;
68944;SDS011;55984;48.790;8.990;2023-07-13T05:46:00;5.50;;;4.10;;
68944;SDS011;55984;48.790;8.990;2023-07-13T05:48:27;6.57;;;3.70;;
68944;SDS011;55984;48.790;8.990;2023-07-13T05:50:53;8.90;;;4.07;;
68944;SDS011;55984;48.790;8.990;2023-07-13T05:53:19;7.50;;;3.40;;
68944;SDS011;55984;48.790;8.990;2023-07-13T05:55:45;9.13;;;4.00;;
68944;SDS011;55984;48.790;8.990;2023-07-13T05:58:17;8.40;;;3.77;;
68944;SDS011;55984;48.790;8.990;2023-07-13T06:00:43;8.33;;;3.70;;
68944;SDS011;55984;48.790;8.990;2023-07-13T06:03:10;6.70;;;3.67;;
68944;SDS011;55984;48.790;8.990;2023-07-13T06:05:36;9.07;;;3.60;;
68944;SDS011;55984;48.790;8.990;2023-07-13T06:08:04;7.50;;;3.33;;
68944;SDS011;55984;48.790;8.990;2023-07-13T06:10:34;7.53;;;3.63;;
68944;SDS011;55984;48.790;8.990;2023-07-13T06:13:01;10.37;;;3.67;;
68944;SDS011;55984;48.790;8.990;2023-07-13T06:15:28;9.70;;;3.73;;
68944;SDS011;55984;48.790;8.990;2023-07-13T06:17:54;6.43;;;3.40;;
68944;SDS011;55984;48.790;8.990;2023-07-13T06:20:20;8.97;;;3.40;;
68944;SDS011;55984;48.790;8.990;2023-07-13T06:22:46;10.47;;;4.43;;
68944;SDS011;55984;48.790;8.990;2023-07-13T06:25:12;5.13;;;3.03;;
68944;SDS011;55984;48.790;8.990;2023-07-13T06:27:38;6.03;;;2.90;;
68944;SDS011;55984;48.790;8.990;2023-07-13T06:30:04;6.83;;;3.27;;
68944;SDS011;55984;48.790;8.990;2023-07-13T06:32:31;6.97;;;2.80;;
68944;SDS011;55984;48.790;8.990;2023-07-13T06:34:57;9.00;;;3.30;;
68944;SDS011;55984;48.790;8.990;2023-07-13T06:37:23;9.20;;;3.00;;
68944;SDS011;55984;48.790;8.990;2023-07-13T06:39:49;5.27;;;3.17;;
68944;SDS011;55984;48.790;8.990;2023-07-13T06:42:17;5.70;;;2.90;;
68944;SDS011;55984;48.790;8.990;2023-07-13T06:44:44;4.73;;;2.80;;
68944;SDS011;55984;48.790;8.990;2023-07-13T06:47:10;7.23;;;2.83;;
68944;SDS011;55984;48.790;8.990;2023-07-13T06:49:36;5.67;;;2.87;;
68944;SDS011;55984;48.790;8.990;2023-07-13T06:52:02;4.17;;;2.73;;
68944;SDS011;55984;48.790;8.990;2023-07-13T06:54:28;8.87;;;2.90;;
68944;SDS011;55984;48.790;8.990;2023-07-13T06:56:54;8.33;;;2.83;;
68944;SDS011;55984;48.790;8.990;2023-07-13T06:59:20;13.10;;;3.10;;
68944;SDS011;55984;48.790;8.990;2023-07-13T07:01:48;8.53;;;2.83;;
68944;SDS011;55984;48.790;8.990;2023-07-13T07:04:14;8.20;;;3.20;;
68944;SDS011;55984;48.790;8.990;2023-07-13T07:06:41;5.70;;;2.90;;
68944;SDS011;55984;48.790;8.990;2023-07-13T07:09:07;14.27;;;2.90;;
68944;SDS011;55984;48.790;8.990;2023-07-13T07:11:34;6.80;;;2.90;;
68944;SDS011;55984;48.790;8.990;2023-07-13T07:14:00;8.93;;;3.13;;
68944;SDS011;55984;48.790;8.990;2023-07-13T07:16:26;7.03;;;2.90;;
68944;SDS011;55984;48.790;8.990;2023-07-13T07:18:52;11.63;;;2.50;;
68944;SDS011;55984;48.790;8.990;2023-07-13T07:21:18;5.37;;;2.83;;
68944;SDS011;55984;48.790;8.990;2023-07-13T07:23:45;4.07;;;2.40;;
68944;SDS011;55984;48.790;8.990;2023-07-13T07:26:11;4.20;;;2.43;;
68944;SDS011;55984;48.790;8.990;2023-07-13T07:28:37;3.27;;;2.33;;
68944;SDS011;55984;48.790;8.990;2023-07-13T07:31:03;4.40;;;2.50;;
68944;SDS011;55984;48.790;8.990;2023-07-13T07:33:29;6.20;;;2.50;;
68944;SDS011;55984;48.790;8.990;2023-07-13T07:35:55;8.70;;;3.30;;
68944;SDS011;55984;48.790;8.990;2023-07-13T07:38:21;3.60;;;2.27;;
68944;SDS011;55984;48.790;8.990;2023-07-13T07:40:48;8.23;;;3.20;;
68944;SDS011;55984;48.790;8.990;2023-07-13T07:43:14;4.60;;;2.60;;
68944;SDS011;55984;48.790;8.990;2023-07-13T07:45:41;15.30;;;2.47;;
68944;SDS011;55984;48.790;8.990;2023-07-13T07:48:07;5.57;;;2.53;;
68944;SDS011;55984;48.790;8.990;2023-07-13T07:50:34;6.50;;;2.53;;
68944;SDS011;55984;48.790;8.990;2023-07-13T07:53:00;5.47;;;2.43;;
68944;SDS011;55984;48.790;8.990;2023-07-13T07:55:27;5.90;;;2.50;;
68944;SDS011;55984;48.790;8.990;2023-07-13T07:57:53;3.00;;;2.30;;
68944;SDS011;55984;48.790;8.990;2023-07-13T08:00:19;3.73;;;2.23;;
68944;SDS011;55984;48.790;8.990;2023-07-13T08:02:46;3.77;;;2.30;;
68944;SDS011;55984;48.790;8.990;2023-07-13T08:05:12;3.57;;;2.13;;
68944;SDS011;55984;48.790;8.990;2023-07-13T08:07:38;4.70;;;2.40;;
68944;SDS011;55984;48.790;8.990;2023-07-13T08:10:05;6.60;;;2.30;;
68944;SDS011;55984;48.790;8.990;2023-07-13T08:12:36;5.50;;;2.27;;
68944;SDS011;55984;48.790;8.990;2023-07-13T08:15:03;6.17;;;2.30;;
68944;SDS011;55984;48.790;8.990;2023-07-13T08:17:30;4.90;;;2.27;;
68944;SDS011;55984;48.790;8.990;2023-07-13T08:19:56;3.20;;;2.17;;
68944;SDS011;55984;48.790;8.990;2023-07-13T08:22:22;6.10;;;2.57;;
68944;SDS011;55984;48.790;8.990;2023-07-13T08:24:49;6.03;;;2.77;;
68944;SDS011;55984;48.790;8.990;2023-07-13T08:27:21;4.07;;;2.30;;
68944;SDS011;55984;48.790;8.990;2023-07-13T08:29:51;10.90;;;2.57;;
68944;SDS011;55984;48.790;8.990;2023-07-13T08:32:18;6.53;;;3.13;;
68944;SDS011;55984;48.790;8.990;2023-07-13T08:34:45;4.20;;;2.50;;
68944;SDS011;55984;48.790;8.990;2023-07-13T08:37:12;5.57;;;2.60;;
68944;SDS011;55984;48.790;8.990;2023-07-13T08:39:38;4.30;;;2.40;;
68944;SDS011;55984;48.790;8.990;2023-07-13T08:45:08;5.27;;;2.60;;
68944;SDS011;55984;48.790;8.990;2023-07-13T08:47:43;10.67;;;2.60;;
68944;SDS011;55984;48.790;8.990;2023-07-13T08:50:13;156.90;;;11.13;;
68944;SDS011;55984;48.790;8.990;2023-07-13T08:52:43;158.13;;;24.73;;
68944;SDS011;55984;48.790;8.990;2023-07-13T08:55:13;1999.90;;;999.90;;
68944;SDS011;55984;48.790;8.990;2023-07-13T08:57:43;1999.90;;;999.90;;
68944;SDS011;55984;48.790;8.990;2023-07-13T09:00:12;1999.90;;;999.90;;
68944;SDS011;55984;48.790;8.990;2023-07-13T09:17:09;1999.90;;;999.90;;
68944;SDS011;55984;48.790;8.990;2023-07-13T09:19:39;1999.90;;;999.90;;
68944;SDS011;55984;48.790;8.990;2023-07-13T09:22:08;1999.90;;;999.90;;
68944;SDS011;55984;48.790;8.990;2023-07-13T09:24:41;1999.90;;;999.90;;
68944;SDS011;55984;48.790;8.990;2023-07-13T09:27:23;1999.90;;;999.90;;
68944;SDS011;55984;48.790;8.990;2023-07-13T09:29:57;1999.90;;;999.90;;
68944;SDS011;55984;48.790;8.990;2023-07-13T09:32:34;1999.90;;;999.90;;
68944;SDS011;55984;48.790;8.990;2023-07-13T09:35:05;21.87;;;1.97;;
68944;SDS011;55984;48.790;8.990;2023-07-13T09:37:43;686.60;;;48.10;;
68944;SDS011;55984;48.790;8.990;2023-07-13T09:40:22;19.23;;;2.33;;
68944;SDS011;55984;48.790;8.990;2023-07-13T09:42:51;31.70;;;8.30;;
68944;SDS011;55984;48.790;8.990;2023-07-13T09:45:29;1295.73;;;846.87;;
68944;SDS011;55984;48.790;8.990;2023-07-13T09:48:03;20.43;;;2.70;;
68944;SDS011;55984;48.790;8.990;2023-07-13T09:50:33;5.13;;;1.80;;
68944;SDS011;55984;48.790;8.990;2023-07-13T09:53:00;5.30;;;2.00;;
68944;SDS011;55984;48.790;8.990;2023-07-13T09:58:11;1999.90;;;999.90;;
68944;SDS011;55984;48.790;8.990;2023-07-13T10:00:39;31.90;;;3.30;;
68944;SDS011;55984;48.790;8.990;2023-07-13T10:03:19;1999.90;;;999.90;;
68944;SDS011;55984;48.790;8.990;2023-07-13T10:05:49;1999.90;;;999.90;;
68944;SDS011;55984;48.790;8.990;2023-07-13T10:08:27;398.60;;;289.20;;
68944;SDS011;55984;48.790;8.990;2023-07-13T10:11:01;1999.90;;;999.90;;
68944;SDS011;55984;48.790;8.990;2023-07-13T10:13:37;1999.90;;;999.90;;
68944;SDS011;55984;48.790;8.990;2023-07-13T10:16:08;129.50;;;75.97;;
68944;SDS011;55984;48.790;8.990;2023-07-13T10:21:30;21.47;;;3.00;;
68944;SDS011;55984;48.790;8.990;2023-07-13T10:24:03;1999.90;;;999.90;;
68944;SDS011;55984;48.790;8.990;2023-07-13T10:26:45;1999.90;;;999.90;;
68944;SDS011;55984;48.790;8.990;2023-07-13T10:29:14;54.10;;;4.50;;
68944;SDS011;55984;48.790;8.990;2023-07-13T10:31:46;45.23;;;8.50;;
68944;SDS011;55984;48.790;8.990;2023-07-13T10:34:12;154.47;;;12.83;;
68944;SDS011;55984;48.790;8.990;2023-07-13T10:36:46;1397.70;;;727.93;;
68944;SDS011;55984;48.790;8.990;2023-07-13T10:39:23;191.53;;;117.20;;
68944;SDS011;55984;48.790;8.990;2023-07-13T10:42:03;84.17;;;32.60;;
68944;SDS011;55984;48.790;8.990;2023-07-13T10:44:32;87.70;;;10.13;;
68944;SDS011;55984;48.790;8.990;2023-07-13T10:47:08;67.47;;;8.70;;
68944;SDS011;55984;48.790;8.990;2023-07-13T10:49:40;65.63;;;7.73;;
68944;SDS011;55984;48.790;8.990;2023-07-13T10:55:30;179.17;;;38.67;;
68944;SDS011;55984;48.790;8.990;2023-07-13T10:58:03;3.53;;;2.20;;
68944;SDS011;55984;48.790;8.990;2023-07-13T11:00:43;4.60;;;2.27;;
68944;SDS011;55984;48.790;8.990;2023-07-13T11:03:14;4.40;;;2.63;;
68944;SDS011;55984;48.790;8.990;2023-07-13T11:05:43;5.67;;;2.87;;
68944;SDS011;55984;48.790;8.990;2023-07-13T11:08:13;2.97;;;2.70;;
68944;SDS011;55984;48.790;8.990;2023-07-13T11:10:47;7.80;;;2.97;;
68944;SDS011;55984;48.790;8.990;2023-07-13T11:16:34;4.27;;;2.40;;
68944;SDS011;55984;48.790;8.990;2023-07-13T11:19:26;6.43;;;3.50;;
68944;SDS011;55984;48.790;8.990;2023-07-13T11:24:29;4.40;;;2.67;;
68944;SDS011;55984;48.790;8.990;2023-07-13T11:27:42;6.00;;;2.67;;
68944;SDS011;55984;48.790;8.990;2023-07-13T11:33:45;8.53;;;3.23;;
68944;SDS011;55984;48.790;8.990;2023-07-13T11:36:04;5.90;;;2.70;;
68944;SDS011;55984;48.790;8.990;2023-07-13T11:38:38;6.03;;;2.70;;
68944;SDS011;55984;48.790;8.990;2023-07-13T11:41:16;5.83;;;2.93;;
68944;SDS011;55984;48.790;8.990;2023-07-13T11:43:45;5.00;;;2.70;;
68944;SDS011;55984;48.790;8.990;2023-07-13T11:48:45;6.03;;;2.83;;
68944;SDS011;55984;48.790;8.990;2023-07-13T11:51:26;4.00;;;2.40;;
68944;SDS011;55984;48.790;8.990;2023-07-13T11:54:01;3.93;;;2.60;;
68944;SDS011;55984;48.790;8.990;2023-07-13T11:56:30;7.67;;;3.03;;
68944;SDS011;55984;48.790;8.990;2023-07-13T11:59:02;4.53;;;2.60;;
68944;SDS011;55984;48.790;8.990;2023-07-13T12:01:31;4.10;;;2.57;;
68944;SDS011;55984;48.790;8.990;2023-07-13T12:03:59;9.07;;;3.00;;
68944;SDS011;55984;48.790;8.990;2023-07-13T12:06:29;7.67;;;3.50;;
68944;SDS011;55984;48.790;8.990;2023-07-13T12:08:57;8.60;;;2.97;;
68944;SDS011;55984;48.790;8.990;2023-07-13T12:11:28;6.67;;;3.00;;
68944;SDS011;55984;48.790;8.990;2023-07-13T12:13:55;7.03;;;3.03;;
68944;SDS011;55984;48.790;8.990;2023-07-13T12:16:31;5.93;;;2.87;;
68944;SDS011;55984;48.790;8.990;2023-07-13T12:19:02;6.13;;;2.80;;
68944;SDS011;55984;48.790;8.990;2023-07-13T12:21:32;4.40;;;2.87;;
68944;SDS011;55984;48.790;8.990;2023-07-13T12:24:13;7.80;;;2.70;;
68944;SDS011;55984;48.790;8.990;2023-07-13T12:26:40;4.77;;;2.70;;
68944;SDS011;55984;48.790;8.990;2023-07-13T12:29:16;5.93;;;2.80;;
68944;SDS011;55984;48.790;8.990;2023-07-13T12:31:44;4.17;;;2.83;;
68944;SDS011;55984;48.790;8.990;2023-07-13T12:34:16;5.03;;;2.90;;
68944;SDS011;55984;48.790;8.990;2023-07-13T12:36:48;3.97;;;2.60;;
68944;SDS011;55984;48.790;8.990;2023-07-13T12:41:51;7.93;;;2.87;;
68944;SDS011;55984;48.790;8.990;2023-07-13T12:44:21;4.70;;;3.10;;
68944;SDS011;55984;48.790;8.990;2023-07-13T12:46:56;4.67;;;3.27;;
68944;SDS011;55984;48.790;8.990;2023-07-13T12:49:39;4.20;;;2.83;;
68944;SDS011;55984;48.790;8.990;2023-07-13T12:52:12;8.40;;;3.10;;
68944;SDS011;55984;48.790;8.990;2023-07-13T12:54:41;4.40;;;2.97;;
68944;SDS011;55984;48.790;8.990;2023-07-13T12:57:08;8.10;;;2.90;;
68944;SDS011;55984;48.790;8.990;2023-07-13T12:59:42;5.03;;;2.80;;
68944;SDS011;55984;48.790;8.990;2023-07-13T13:02:30;5.20;;;2.80;;
68944;SDS011;55984;48.790;8.990;2023-07-13T13:05:02;4.57;;;2.90;;
68944;SDS011;55984;48.790;8.990;2023-07-13T13:07:30;5.40;;;2.77;;
68944;SDS011;55984;48.790;8.990;2023-07-13T13:09:56;5.60;;;3.13;;
68944;SDS011;55984;48.790;8.990;2023-07-13T13:12:22;3.87;;;2.83;;
68944;SDS011;55984;48.790;8.990;2023-07-13T13:14:51;4.43;;;2.70;;
68944;SDS011;55984;48.790;8.990;2023-07-13T13:17:22;3.37;;;2.53;;
68944;SDS011;55984;48.790;8.990;2023-07-13T13:19:53;4.60;;;2.70;;
68944;SDS011;55984;48.790;8.990;2023-07-13T13:22:20;11.67;;;2.93;;
68944;SDS011;55984;48.790;8.990;2023-07-13T13:24:46;5.07;;;2.70;;
68944;SDS011;55984;48.790;8.990;2023-07-13T13:27:16;3.20;;;2.47;;
68944;SDS011;55984;48.790;8.990;2023-07-13T13:29:44;6.93;;;3.10;;
68944;SDS011;55984;48.790;8.990;2023-07-13T13:32:13;3.50;;;2.60;;
68944;SDS011;55984;48.790;8.990;2023-07-13T13:34:40;3.10;;;2.40;;
68944;SDS011;55984;48.790;8.990;2023-07-13T13:37:20;4.13;;;2.70;;
68944;SDS011;55984;48.790;8.990;2023-07-13T13:39:49;5.13;;;2.73;;
68944;SDS011;55984;48.790;8.990;2023-07-13T13:42:26;5.00;;;2.90;;
68944;SDS011;55984;48.790;8.990;2023-07-13T13:44:53;3.00;;;2.43;;
68944;SDS011;55984;48.790;8.990;2023-07-13T13:47:28;4.33;;;2.67;;
68944;SDS011;55984;48.790;8.990;2023-07-13T13:49:56;3.57;;;2.70;;
68944;SDS011;55984;48.790;8.990;2023-07-13T13:52:23;8.37;;;2.80;;
68944;SDS011;55984;48.790;8.990;2023-07-13T13:54:50;10.13;;;3.20;;
68944;SDS011;55984;48.790;8.990;2023-07-13T13:57:21;5.40;;;2.63;;
68944;SDS011;55984;48.790;8.990;2023-07-13T13:59:49;5.60;;;2.77;;
68944;SDS011;55984;48.790;8.990;2023-07-13T14:02:25;6.57;;;3.40;;
68944;SDS011;55984;48.790;8.990;2023-07-13T14:04:58;4.10;;;2.97;;
68944;SDS011;55984;48.790;8.990;2023-07-13T14:07:27;3.40;;;2.90;;
68944;SDS011;55984;48.790;8.990;2023-07-13T14:09:55;6.23;;;2.90;;
68944;SDS011;55984;48.790;8.990;2023-07-13T14:12:23;6.30;;;2.97;;
68944;SDS011;55984;48.790;8.990;2023-07-13T14:14:53;6.07;;;3.10;;
68944;SDS011;55984;48.790;8.990;2023-07-13T14:20:17;6.00;;;2.63;;
68944;SDS011;55984;48.790;8.990;2023-07-13T14:22:45;4.47;;;2.53;;
68944;SDS011;55984;48.790;8.990;2023-07-13T14:25:12;3.30;;;2.50;;
68944;SDS011;55984;48.790;8.990;2023-07-13T14:27:39;6.40;;;3.00;;
68944;SDS011;55984;48.790;8.990;2023-07-13T14:30:13;3.83;;;2.83;;
68944;SDS011;55984;48.790;8.990;2023-07-13T14:32:44;6.77;;;2.93;;
68944;SDS011;55984;48.790;8.990;2023-07-13T14:35:13;5.30;;;2.77;;
68944;SDS011;55984;48.790;8.990;2023-07-13T14:37:40;5.00;;;2.73;;
68944;SDS011;55984;48.790;8.990;2023-07-13T14:42:40;5.13;;;2.60;;
68944;SDS011;55984;48.790;8.990;2023-07-13T14:45:16;5.00;;;2.80;;
68944;SDS011;55984;48.790;8.990;2023-07-13T14:47:45;8.60;;;3.17;;
68944;SDS011;55984;48.790;8.990;2023-07-13T14:50:13;6.30;;;3.13;;
68944;SDS011;55984;48.790;8.990;2023-07-13T14:52:52;6.50;;;2.97;;
68944;SDS011;55984;48.790;8.990;2023-07-13T14:55:18;4.53;;;2.80;;
68944;SDS011;55984;48.790;8.990;2023-07-13T14:57:45;5.30;;;2.80;;
68944;SDS011;55984;48.790;8.990;2023-07-13T15:02:52;4.33;;;2.70;;
68944;SDS011;55984;48.790;8.990;2023-07-13T15:05:24;9.83;;;2.90;;
68944;SDS011;55984;48.790;8.990;2023-07-13T15:07:56;5.87;;;2.90;;
68944;SDS011;55984;48.790;8.990;2023-07-13T15:10:25;5.53;;;3.23;;
68944;SDS011;55984;48.790;8.990;2023-07-13T15:12:58;7.17;;;2.70;;
68944;SDS011;55984;48.790;8.990;2023-07-13T15:15:37;5.10;;;2.73;;
68944;SDS011;55984;48.790;8.990;2023-07-13T15:18:07;5.70;;;2.93;;
68944;SDS011;55984;48.790;8.990;2023-07-13T15:20:36;10.37;;;2.90;;
68944;SDS011;55984;48.790;8.990;2023-07-13T15:23:04;4.40;;;2.90;;
68944;SDS011;55984;48.790;8.990;2023-07-13T15:25:31;4.73;;;2.80;;
68944;SDS011;55984;48.790;8.990;2023-07-13T15:27:59;4.60;;;3.03;;
68944;SDS011;55984;48.790;8.990;2023-07-13T15:30:30;5.97;;;2.80;;
68944;SDS011;55984;48.790;8.990;2023-07-13T15:33:20;4.90;;;2.50;;
68944;SDS011;55984;48.790;8.990;2023-07-13T15:35:50;4.33;;;2.80;;
68944;SDS011;55984;48.790;8.990;2023-07-13T15:38:23;5.07;;;2.77;;
68944;SDS011;55984;48.790;8.990;2023-07-13T15:40:57;4.23;;;2.67;;
68944;SDS011;55984;48.790;8.990;2023-07-13T15:43:26;4.47;;;2.63;;
68944;SDS011;55984;48.790;8.990;2023-07-13T15:45:53;7.20;;;2.67;;
68944;SDS011;55984;48.790;8.990;2023-07-13T15:48:23;4.50;;;2.50;;
68944;SDS011;55984;48.790;8.990;2023-07-13T15:50:54;3.70;;;2.37;;
68944;SDS011;55984;48.790;8.990;2023-07-13T15:53:25;7.27;;;2.80;;
68944;SDS011;55984;48.790;8.990;2023-07-13T15:55:55;4.30;;;2.40;;